sim
Sign-in with your pilot id or email,
or register
Callsign
Passwort

Schedule Details

Flight Number: EWG86 (1)
Departure: Cologne Bonn Airport (EDDK) at 17:50
Arrival: Munich Airport (EDDM) at 19:00
Route: Eurowings Passenger Schedule. Enter filed route here before submitting Pirep.

Weather Information
Getting current METAR information for EDDK 261820Z 32005KT 9999 -RA FEW022 OVC047 10/10 Q1000 NOSIG
Getting current METAR information for EDDM 261820Z 24020G32KT 9999 -RA OVC023 07/04 Q1001 NOSIG

Schedule Frequency

Route Map